createdAt,value
2018-06-05T00:01:48.907Z,13.85
2018-06-05T00:04:17.630Z,15.08
2018-06-05T00:06:45.713Z,14.55
2018-06-05T00:09:14.082Z,14.75
2018-06-05T00:11:42.197Z,13.62
2018-06-05T00:14:10.582Z,14.40
2018-06-05T00:16:39.222Z,14.45
2018-06-05T00:19:07.403Z,14.35
2018-06-05T00:21:35.650Z,14.03
2018-06-05T00:24:03.739Z,14.30
2018-06-05T00:26:32.099Z,14.90
2018-06-05T00:29:00.429Z,16.17
2018-06-05T00:31:28.552Z,14.60
2018-06-05T00:33:56.638Z,15.60
2018-06-05T00:36:24.799Z,15.70
2018-06-05T00:38:53.501Z,15.93
2018-06-05T00:41:21.566Z,16.23
2018-06-05T00:43:49.682Z,15.50
2018-06-05T00:46:17.789Z,15.60
2018-06-05T00:48:46.202Z,16.30
2018-06-05T00:51:19.823Z,16.87
2018-06-05T00:53:47.938Z,15.70
2018-06-05T00:56:16.252Z,15.72
2018-06-05T00:58:44.306Z,15.93
2018-06-05T01:01:13.014Z,15.75
2018-06-05T01:03:41.127Z,14.90
2018-06-05T01:06:09.670Z,15.80
2018-06-05T01:08:38.348Z,16.25
2018-06-05T01:11:06.946Z,14.60
2018-06-05T01:13:35.390Z,15.25
2018-06-05T01:16:03.443Z,14.70
2018-06-05T01:18:31.775Z,14.05
2018-06-05T01:21:00.141Z,14.45
2018-06-05T01:23:28.181Z,14.05
2018-06-05T01:25:56.466Z,13.03
2018-06-05T01:28:24.547Z,12.80
2018-06-05T01:30:52.713Z,12.43
2018-06-05T01:33:21.065Z,12.50
2018-06-05T01:35:49.502Z,11.33
2018-06-05T01:38:17.781Z,12.20
2018-06-05T01:40:45.782Z,11.63
2018-06-05T01:43:14.442Z,11.50
2018-06-05T01:45:42.489Z,10.90
2018-06-05T01:48:10.899Z,10.70
2018-06-05T01:50:39.002Z,10.38
2018-06-05T01:53:07.437Z,10.15
2018-06-05T01:55:35.808Z,10.60
2018-06-05T01:58:03.879Z,9.70
2018-06-05T02:00:31.938Z,9.85
2018-06-05T02:03:00.619Z,10.25
2018-06-05T02:05:28.998Z,8.93
2018-06-05T02:07:57.156Z,9.00
2018-06-05T02:10:25.552Z,9.10
2018-06-05T02:12:54.342Z,9.23
2018-06-05T02:15:22.428Z,9.55
2018-06-05T02:17:51.094Z,9.40
2018-06-05T02:20:19.689Z,9.68
2018-06-05T02:22:48.705Z,9.20
2018-06-05T02:25:17.100Z,8.83
2018-06-05T02:27:45.480Z,8.10
2018-06-05T02:30:13.765Z,8.65
2018-06-05T02:32:42.489Z,8.85
2018-06-05T02:35:11.130Z,8.60
2018-06-05T02:37:39.526Z,8.90
2018-06-05T02:40:07.882Z,8.50
2018-06-05T02:42:36.223Z,7.70
2018-06-05T02:45:04.235Z,8.23
2018-06-05T02:47:32.342Z,8.18
2018-06-05T02:50:00.326Z,7.87
2018-06-05T02:52:28.674Z,8.20
2018-06-05T02:54:57.036Z,7.92
2018-06-05T02:57:25.408Z,7.70
2018-06-05T02:59:53.552Z,7.72
2018-06-05T03:02:21.979Z,7.83
2018-06-05T03:04:50.044Z,8.20
2018-06-05T03:07:18.141Z,7.60
2018-06-05T03:09:46.218Z,7.67
2018-06-05T03:12:14.322Z,7.03
2018-06-05T03:14:42.431Z,7.30
2018-06-05T03:17:10.683Z,7.62
2018-06-05T03:19:38.789Z,7.70
2018-06-05T03:22:06.950Z,7.10
2018-06-05T03:24:35.069Z,7.60
2018-06-05T03:27:03.187Z,7.50
2018-06-05T03:29:31.373Z,7.33
2018-06-05T03:31:59.494Z,7.20
2018-06-05T03:34:27.650Z,6.80
2018-06-05T03:36:55.855Z,6.43
2018-06-05T03:39:23.963Z,6.50
2018-06-05T03:44:37.299Z,6.83
2018-06-05T03:47:05.252Z,6.30
2018-06-05T03:49:38.798Z,6.40
2018-06-05T03:52:06.756Z,6.65
2018-06-05T03:54:34.709Z,6.30
2018-06-05T03:57:02.678Z,7.08
2018-06-05T03:59:30.684Z,6.90
2018-06-05T04:01:59.120Z,6.50
2018-06-05T04:04:27.065Z,6.80
2018-06-05T04:06:55.053Z,6.90
2018-06-05T04:09:23.012Z,7.25
2018-06-05T04:11:50.990Z,7.17
2018-06-05T04:14:19.080Z,6.47
2018-06-05T04:16:49.600Z,5.93
2018-06-05T04:19:17.801Z,6.42
2018-06-05T04:21:46.060Z,6.58
2018-06-05T04:24:13.952Z,6.22
2018-06-05T04:26:41.904Z,6.25
2018-06-05T04:29:09.952Z,5.75
2018-06-05T04:31:38.228Z,6.25
2018-06-05T04:34:06.376Z,6.87
2018-06-05T04:36:34.851Z,6.15
2018-06-05T04:39:02.920Z,5.70
2018-06-05T04:41:30.949Z,5.70
2018-06-05T04:43:59.225Z,6.30
2018-06-05T04:46:27.389Z,5.40
2018-06-05T04:48:55.877Z,5.80
2018-06-05T04:51:24.195Z,5.78
2018-06-05T04:53:52.166Z,5.45
2018-06-05T04:56:20.466Z,5.42
2018-06-05T04:58:48.894Z,5.70
2018-06-05T05:01:17.036Z,5.58
2018-06-05T05:03:44.958Z,5.70
2018-06-05T05:06:12.892Z,5.30
2018-06-05T05:08:40.900Z,5.70
2018-06-05T05:11:09.137Z,6.10
2018-06-05T05:13:37.116Z,5.50
2018-06-05T05:16:05.045Z,5.80
2018-06-05T05:18:33.025Z,5.37
2018-06-05T05:21:01.532Z,5.60
2018-06-05T05:23:29.471Z,6.35
2018-06-05T05:25:57.739Z,5.30
2018-06-05T05:28:25.983Z,5.42
2018-06-05T05:30:54.330Z,5.70
2018-06-05T05:33:22.807Z,5.80
2018-06-05T05:35:50.824Z,5.30
2018-06-05T05:38:18.984Z,5.50
2018-06-05T05:40:47.287Z,5.87
2018-06-05T05:43:15.917Z,5.30
2018-06-05T05:45:43.882Z,5.05
2018-06-05T05:48:11.820Z,5.97
2018-06-05T05:50:39.732Z,5.42
2018-06-05T05:53:08.017Z,5.55
2018-06-05T05:55:36.220Z,5.00
2018-06-05T05:58:04.527Z,5.62
2018-06-05T06:00:32.828Z,5.20
2018-06-05T06:03:00.801Z,4.80
2018-06-05T06:05:29.406Z,5.20
2018-06-05T06:07:57.659Z,6.05
2018-06-05T06:10:25.597Z,5.78
2018-06-05T06:12:53.610Z,5.30
2018-06-05T06:15:21.597Z,5.80
2018-06-05T06:17:49.584Z,4.50
2018-06-05T06:20:17.541Z,5.17
2018-06-05T06:22:45.498Z,5.20
2018-06-05T06:25:13.568Z,5.00
2018-06-05T06:27:41.581Z,4.53
2018-06-05T06:30:09.406Z,4.75
2018-06-05T06:32:37.415Z,6.25
2018-06-05T06:35:05.577Z,5.47
2018-06-05T06:37:33.576Z,5.15
2018-06-05T06:40:01.584Z,5.20
2018-06-05T06:42:29.637Z,4.72
2018-06-05T06:44:57.725Z,5.93
2018-06-05T06:47:25.856Z,4.77
2018-06-05T06:49:53.957Z,5.57
2018-06-05T06:52:21.880Z,5.50
2018-06-05T06:54:50.139Z,7.65
2018-06-05T06:57:18.223Z,5.50
2018-06-05T06:59:46.176Z,5.80
2018-06-05T07:02:14.256Z,6.80
2018-06-05T07:04:42.281Z,5.90
2018-06-05T07:07:10.309Z,5.85
2018-06-05T07:09:38.492Z,5.97
2018-06-05T07:12:07.020Z,5.00
2018-06-05T07:14:35.264Z,5.00
2018-06-05T07:17:03.446Z,5.07
2018-06-05T07:19:31.645Z,5.50
2018-06-05T07:21:59.940Z,5.65
2018-06-05T07:24:27.966Z,5.55
2018-06-05T07:26:56.789Z,5.85
2018-06-05T07:29:25.075Z,5.30
2018-06-05T07:31:53.957Z,5.90
2018-06-05T07:34:22.176Z,6.58
2018-06-05T07:36:50.403Z,6.67
2018-06-05T07:39:18.888Z,6.75
2018-06-05T07:41:47.204Z,5.95
2018-06-05T07:44:15.393Z,8.05
2018-06-05T07:46:43.857Z,5.92
2018-06-05T07:49:12.101Z,6.42
2018-06-05T07:51:40.319Z,6.22
2018-06-05T07:54:08.270Z,6.27
2018-06-05T07:56:36.590Z,6.58
2018-06-05T07:59:05.200Z,6.20
2018-06-05T08:01:33.166Z,5.50
2018-06-05T08:04:01.462Z,5.70
2018-06-05T08:06:29.441Z,5.50
2018-06-05T08:08:57.769Z,5.08
2018-06-05T08:11:25.695Z,5.50
2018-06-05T08:13:53.946Z,5.78
2018-06-05T08:16:22.839Z,5.17
2018-06-05T08:18:51.008Z,5.10
2018-06-05T08:21:19.285Z,5.43
2018-06-05T08:23:47.232Z,5.58
2018-06-05T08:26:15.192Z,5.12
2018-06-05T08:28:43.555Z,5.90
2018-06-05T08:31:11.787Z,5.58
2018-06-05T08:33:40.263Z,5.20
2018-06-05T08:36:08.244Z,5.50
2018-06-05T08:38:36.433Z,7.30
2018-06-05T08:41:04.508Z,5.45
2018-06-05T08:43:32.505Z,5.03
2018-06-05T08:46:00.651Z,4.72
2018-06-05T08:48:28.552Z,5.20
2018-06-05T08:50:56.534Z,4.60
2018-06-05T08:53:24.584Z,5.28
2018-06-05T08:55:52.793Z,5.87
2018-06-05T08:58:20.825Z,5.97
2018-06-05T09:00:49.032Z,5.73
2018-06-05T09:03:17.013Z,5.10
2018-06-05T09:05:44.952Z,4.58
2018-06-05T09:08:13.200Z,5.12
2018-06-05T09:10:41.337Z,5.30
2018-06-05T09:13:09.254Z,4.72
2018-06-05T09:15:37.449Z,4.30
2018-06-05T09:18:05.568Z,5.15
2018-06-05T09:20:33.528Z,5.00
2018-06-05T09:23:01.512Z,4.60
2018-06-05T09:25:29.657Z,4.90
2018-06-05T09:27:57.821Z,4.90
2018-06-05T09:30:25.809Z,5.80
2018-06-05T09:32:53.789Z,5.20
2018-06-05T09:35:21.944Z,4.45
2018-06-05T09:37:50.039Z,4.87
2018-06-05T09:40:18.617Z,5.20
2018-06-05T09:42:46.922Z,4.70
2018-06-05T09:45:15.030Z,4.60
2018-06-05T09:47:43.129Z,5.40
2018-06-05T09:50:11.461Z,5.72
2018-06-05T09:52:40.022Z,5.33
2018-06-05T09:55:08.166Z,4.80
2018-06-05T09:57:36.265Z,5.00
2018-06-05T10:00:04.372Z,5.37
2018-06-05T10:02:32.601Z,4.80
2018-06-05T10:05:00.928Z,4.72
2018-06-05T10:07:29.094Z,5.58
2018-06-05T10:09:57.459Z,7.37
2018-06-05T10:12:25.682Z,7.65
2018-06-05T10:14:53.961Z,8.27
2018-06-05T10:17:22.086Z,6.65
2018-06-05T10:19:50.265Z,7.60
2018-06-05T10:22:18.491Z,6.37
2018-06-05T10:24:46.523Z,8.23
2018-06-05T10:27:14.711Z,5.80
2018-06-05T10:29:42.907Z,7.25
2018-06-05T10:32:11.006Z,6.42
2018-06-05T10:34:39.018Z,6.20
2018-06-05T10:37:07.169Z,7.15
2018-06-05T10:39:35.304Z,6.30
2018-06-05T10:42:03.727Z,5.92
2018-06-05T10:44:31.915Z,6.12
2018-06-05T10:47:00.137Z,6.17
2018-06-05T10:49:28.165Z,5.45
2018-06-05T10:51:56.381Z,5.70
2018-06-05T10:54:24.597Z,5.00
2018-06-05T10:56:52.781Z,4.80
2018-06-05T10:59:21.081Z,5.50
2018-06-05T11:01:49.144Z,5.00
2018-06-05T11:04:17.206Z,5.50
2018-06-05T11:06:45.357Z,5.60
2018-06-05T11:09:13.499Z,5.15
2018-06-05T11:11:41.649Z,5.70
2018-06-05T11:14:09.731Z,5.92
2018-06-05T11:16:38.191Z,5.58
2018-06-05T11:19:06.337Z,5.28
2018-06-05T11:21:34.598Z,4.87
2018-06-05T11:24:02.638Z,4.90
2018-06-05T11:26:30.935Z,5.10
2018-06-05T11:28:59.230Z,5.13
2018-06-05T11:31:27.405Z,4.50
2018-06-05T11:33:55.582Z,5.05
2018-06-05T11:36:23.752Z,4.60
2018-06-05T11:38:51.902Z,4.50
2018-06-05T11:41:20.110Z,5.50
2018-06-05T11:43:48.465Z,4.60
2018-06-05T11:46:16.538Z,4.83
2018-06-05T11:48:44.942Z,4.03
2018-06-05T11:51:13.362Z,4.37
2018-06-05T11:53:41.493Z,4.40
2018-06-05T11:56:09.550Z,4.03
2018-06-05T11:58:37.638Z,4.33
2018-06-05T12:01:05.706Z,4.03
2018-06-05T12:03:33.779Z,5.03
2018-06-05T12:06:02.119Z,4.57
2018-06-05T12:08:30.262Z,4.27
2018-06-05T12:10:58.568Z,4.60
2018-06-05T12:13:26.857Z,4.83
2018-06-05T12:15:54.926Z,4.62
2018-06-05T12:18:23.226Z,4.90
2018-06-05T12:20:51.558Z,4.30
2018-06-05T12:23:19.929Z,4.67
2018-06-05T12:25:48.670Z,4.17
2018-06-05T12:28:16.696Z,4.60
2018-06-05T12:30:45.088Z,5.80
2018-06-05T12:33:13.502Z,4.40
2018-06-05T12:35:41.567Z,5.08
2018-06-05T12:38:09.931Z,5.00
2018-06-05T12:40:38.023Z,4.55
2018-06-05T12:43:06.394Z,4.33
2018-06-05T12:46:18.201Z,4.35
2018-06-05T12:48:46.271Z,4.67
2018-06-05T12:51:14.302Z,4.87
2018-06-05T12:53:42.358Z,4.70
2018-06-05T12:56:10.463Z,4.15
2018-06-05T12:58:38.579Z,5.37
2018-06-05T13:01:06.587Z,5.20
2018-06-05T13:03:35.015Z,4.40
2018-06-05T13:06:03.127Z,4.50
2018-06-05T13:08:31.456Z,4.42
2018-06-05T13:11:00.045Z,4.62
2018-06-05T13:13:28.427Z,4.40
2018-06-05T13:15:56.526Z,4.28
2018-06-05T13:18:24.649Z,4.27
2018-06-05T13:20:53.359Z,4.35
2018-06-05T13:23:21.774Z,4.67
2018-06-05T13:25:49.833Z,4.50
2018-06-05T13:28:18.393Z,4.43
2018-06-05T13:30:46.773Z,3.90
2018-06-05T13:33:15.160Z,3.90
2018-06-05T13:35:43.532Z,4.10
2018-06-05T13:38:11.913Z,3.90
2018-06-05T13:40:40.522Z,4.15
2018-06-05T13:43:08.873Z,4.15
2018-06-05T13:45:37.218Z,3.77
2018-06-05T13:48:05.314Z,3.80
2018-06-05T13:50:33.391Z,4.00
2018-06-05T13:53:02.081Z,4.35
2018-06-05T13:55:30.957Z,4.72
2018-06-05T13:57:59.362Z,4.30
2018-06-05T14:00:27.734Z,3.70
2018-06-05T14:02:56.131Z,4.70
2018-06-05T14:05:24.190Z,4.30
2018-06-05T14:07:52.295Z,4.53
2018-06-05T14:10:20.625Z,4.10
2018-06-05T14:12:49.017Z,4.83
2018-06-05T14:15:17.622Z,4.50
2018-06-05T14:17:45.998Z,4.00
2018-06-05T14:20:14.322Z,4.35
2018-06-05T14:22:42.603Z,6.50
2018-06-05T14:25:10.702Z,4.37
2018-06-05T14:27:39.055Z,4.50
2018-06-05T14:30:07.470Z,3.90
2018-06-05T14:32:35.741Z,5.00
2018-06-05T14:35:04.148Z,5.40
2018-06-05T14:37:32.215Z,4.77
2018-06-05T14:40:00.765Z,4.35
2018-06-05T14:42:28.819Z,4.37
2018-06-05T14:44:57.204Z,4.05
2018-06-05T14:47:25.826Z,4.33
2018-06-05T14:49:54.385Z,5.17
2018-06-05T14:52:22.486Z,4.92
2018-06-05T14:54:50.573Z,4.20
2018-06-05T14:57:18.881Z,4.60
2018-06-05T14:59:46.961Z,3.77
2018-06-05T15:02:15.627Z,4.20
2018-06-05T15:04:43.945Z,3.90
2018-06-05T15:07:12.250Z,3.87
2018-06-05T15:09:40.609Z,4.20
2018-06-05T15:12:08.649Z,4.10
2018-06-05T15:14:36.728Z,4.00
2018-06-05T15:17:05.423Z,3.90
2018-06-05T15:19:33.574Z,3.90
2018-06-05T15:22:01.609Z,3.75
2018-06-05T15:24:30.046Z,3.80
2018-06-05T15:26:58.106Z,4.40
2018-06-05T15:29:26.491Z,4.00
2018-06-05T15:31:54.802Z,4.15
2018-06-05T15:34:23.161Z,4.17
2018-06-05T15:36:52.174Z,4.25
2018-06-05T15:39:20.519Z,4.75
2018-06-05T15:41:48.827Z,4.20
2018-06-05T15:44:16.921Z,4.70
2018-06-05T15:46:45.220Z,4.40
2018-06-05T15:49:13.657Z,4.90
2018-06-05T15:51:42.239Z,4.37
2018-06-05T15:54:10.649Z,4.08
2018-06-05T15:56:39.057Z,4.05
2018-06-05T15:59:07.146Z,4.37
2018-06-05T16:01:35.321Z,4.00
2018-06-05T16:04:03.726Z,4.17
2018-06-05T16:06:31.787Z,4.00
2018-06-05T16:08:59.877Z,3.90
2018-06-05T16:11:28.454Z,4.10
2018-06-05T16:13:56.504Z,4.20
2018-06-05T16:16:24.912Z,4.80
2018-06-05T16:18:53.014Z,4.75
2018-06-05T16:21:21.049Z,4.55
2018-06-05T16:23:49.434Z,5.10
2018-06-05T16:26:17.535Z,4.70
2018-06-05T16:28:45.884Z,6.28
2018-06-05T16:31:14.065Z,5.65
2018-06-05T16:33:42.141Z,5.50
2018-06-05T16:36:10.406Z,5.28
2018-06-05T16:38:38.555Z,5.75
2018-06-05T16:41:06.755Z,5.30
2018-06-05T16:43:35.136Z,5.90
2018-06-05T16:46:03.381Z,5.30
2018-06-05T16:48:31.914Z,5.10
2018-06-05T16:50:59.983Z,5.30
2018-06-05T16:53:28.100Z,5.65
2018-06-05T16:55:56.223Z,5.70
2018-06-05T16:58:24.296Z,5.83
2018-06-05T17:00:52.471Z,5.60
2018-06-05T17:03:20.680Z,5.50
2018-06-05T17:05:48.741Z,5.70
2018-06-05T17:08:16.787Z,6.50
2018-06-05T17:10:45.074Z,5.85
2018-06-05T17:13:13.095Z,6.10
2018-06-05T17:15:41.204Z,5.50
2018-06-05T17:18:09.438Z,6.22
2018-06-05T17:20:37.537Z,6.10
2018-06-05T17:23:05.519Z,6.08
2018-06-05T17:25:33.638Z,6.08
2018-06-05T17:28:01.658Z,6.07
2018-06-05T17:30:29.710Z,6.50
2018-06-05T17:32:57.760Z,6.45
2018-06-05T17:35:25.823Z,6.12
2018-06-05T17:37:53.885Z,6.00
2018-06-05T17:40:22.245Z,6.30
2018-06-05T17:42:50.298Z,5.97
2018-06-05T17:45:18.887Z,5.87
2018-06-05T17:47:47.058Z,5.60
2018-06-05T17:50:15.190Z,6.10
2018-06-05T17:52:43.282Z,6.22
2018-06-05T17:55:11.434Z,5.97
2018-06-05T17:57:39.596Z,5.90
2018-06-05T18:00:07.593Z,5.03
2018-06-05T18:02:35.789Z,6.13
2018-06-05T18:05:04.014Z,6.90
2018-06-05T18:07:32.442Z,6.55
2018-06-05T18:10:00.586Z,7.60
2018-06-05T18:12:28.694Z,7.15
2018-06-05T18:14:56.770Z,5.80
2018-06-05T18:17:25.149Z,6.40
2018-06-05T18:19:53.210Z,7.13
2018-06-05T18:22:21.570Z,7.80
2018-06-05T18:24:49.669Z,7.50
2018-06-05T18:27:18.059Z,7.25
2018-06-05T18:29:46.137Z,7.70
2018-06-05T18:32:14.389Z,7.70
2018-06-05T18:34:42.791Z,7.60
2018-06-05T18:37:10.914Z,6.50
2018-06-05T18:39:39.538Z,5.40
2018-06-05T18:42:07.602Z,5.83
2018-06-05T18:44:35.584Z,4.22
2018-06-05T18:47:03.823Z,4.05
2018-06-05T18:49:32.313Z,3.72
2018-06-05T18:52:00.403Z,3.80
2018-06-05T18:54:28.703Z,3.72
2018-06-05T18:56:57.582Z,3.50
2018-06-05T18:59:25.598Z,3.40
2018-06-05T19:01:53.860Z,3.50
2018-06-05T19:04:23.027Z,3.70
2018-06-05T19:06:51.382Z,3.40
2018-06-05T19:09:19.805Z,3.80
2018-06-05T19:11:48.190Z,3.50
2018-06-05T19:14:16.546Z,3.10
2018-06-05T19:16:44.839Z,3.30
2018-06-05T19:19:12.862Z,3.35
2018-06-05T19:21:41.574Z,2.87
2018-06-05T19:24:09.646Z,3.15
2018-06-05T19:26:38.040Z,3.50
2018-06-05T19:29:06.118Z,3.70
2018-06-05T19:31:34.278Z,4.05
2018-06-05T19:34:02.758Z,4.55
2018-06-05T19:36:31.147Z,4.00
2018-06-05T19:38:59.519Z,4.20
2018-06-05T19:41:27.907Z,4.30
2018-06-05T19:43:55.907Z,3.77
2018-06-05T19:46:24.282Z,3.50
2018-06-05T19:48:52.625Z,3.40
2018-06-05T19:51:20.923Z,3.30
2018-06-05T19:53:49.043Z,3.20
2018-06-05T19:56:17.345Z,3.30
2018-06-05T19:58:45.381Z,2.98
2018-06-05T20:01:13.686Z,3.10
2018-06-05T20:03:41.975Z,3.10
2018-06-05T20:06:10.153Z,8.35
2018-06-05T20:08:38.213Z,19.42
2018-06-05T20:11:06.531Z,5.05
2018-06-05T20:13:34.594Z,3.55
2018-06-05T20:16:02.689Z,3.80
2018-06-05T20:18:30.865Z,3.27
2018-06-05T20:20:58.938Z,3.20
2018-06-05T20:23:26.995Z,3.52
2018-06-05T20:25:55.066Z,3.30
2018-06-05T20:28:23.242Z,3.60
2018-06-05T20:30:51.473Z,3.00
2018-06-05T20:33:19.910Z,3.00
2018-06-05T20:35:48.095Z,2.92
2018-06-05T20:38:16.163Z,2.80
2018-06-05T20:40:44.293Z,2.67
2018-06-05T20:43:12.390Z,2.70
2018-06-05T20:45:40.407Z,2.30
2018-06-05T20:48:08.484Z,2.90
2018-06-05T20:50:36.771Z,2.40
2018-06-05T20:53:05.051Z,2.40
2018-06-05T20:55:33.115Z,2.20
2018-06-05T20:58:01.485Z,2.15
2018-06-05T21:00:29.663Z,2.10
2018-06-05T21:02:57.871Z,2.00
2018-06-05T21:05:26.058Z,2.20
2018-06-05T21:07:54.608Z,2.10
2018-06-05T21:10:22.694Z,2.30
2018-06-05T21:12:51.202Z,2.00
2018-06-05T21:15:19.546Z,1.72
2018-06-05T21:17:47.578Z,1.70
2018-06-05T21:20:15.943Z,1.40
2018-06-05T21:22:44.390Z,1.82
2018-06-05T21:25:13.057Z,1.90
2018-06-05T21:27:41.194Z,1.70
2018-06-05T21:30:09.427Z,1.60
2018-06-05T21:32:37.758Z,1.60
2018-06-05T21:35:05.876Z,1.50
2018-06-05T21:37:34.209Z,1.70
2018-06-05T21:40:02.714Z,1.70
2018-06-05T21:42:30.857Z,1.67
2018-06-05T21:44:59.289Z,1.80
2018-06-05T21:47:27.596Z,1.35
2018-06-05T21:49:55.690Z,1.70
2018-06-05T21:52:23.958Z,1.40
2018-06-05T21:54:52.035Z,1.60
2018-06-05T21:57:20.238Z,1.60
2018-06-05T21:59:48.655Z,1.40
2018-06-05T22:02:16.905Z,1.50
2018-06-05T22:04:45.310Z,1.70
2018-06-05T22:07:13.667Z,1.90
2018-06-05T22:09:41.721Z,1.47
2018-06-05T22:12:09.846Z,1.57
2018-06-05T22:14:38.110Z,1.70
2018-06-05T22:17:06.882Z,1.47
2018-06-05T22:19:35.030Z,1.60
2018-06-05T22:22:03.073Z,1.40
2018-06-05T22:24:31.138Z,1.50
2018-06-05T22:26:59.310Z,1.60
2018-06-05T22:29:27.654Z,1.20
2018-06-05T22:31:55.855Z,1.20
2018-06-05T22:34:23.984Z,1.00
2018-06-05T22:36:52.047Z,1.20
2018-06-05T22:39:20.079Z,1.40
2018-06-05T22:41:48.181Z,1.20
2018-06-05T22:44:16.201Z,1.37
2018-06-05T22:46:44.563Z,1.37
2018-06-05T22:49:12.652Z,1.50
2018-06-05T22:51:40.924Z,1.50
2018-06-05T22:54:09.019Z,1.50
2018-06-05T22:56:37.474Z,1.30
2018-06-05T22:59:05.523Z,1.40
2018-06-05T23:01:33.921Z,1.47
2018-06-05T23:04:02.030Z,1.30
2018-06-05T23:06:30.096Z,1.40
2018-06-05T23:08:58.453Z,1.30
2018-06-05T23:11:26.740Z,1.30
2018-06-05T23:13:55.026Z,1.20
2018-06-05T23:16:23.140Z,1.30
2018-06-05T23:18:51.234Z,1.30
2018-06-05T23:21:19.817Z,1.37
2018-06-05T23:23:48.516Z,1.60
2018-06-05T23:26:17.338Z,1.00
2018-06-05T23:28:45.377Z,1.40
2018-06-05T23:31:13.759Z,1.30
2018-06-05T23:33:42.132Z,1.45
2018-06-05T23:36:10.815Z,1.40
2018-06-05T23:38:38.858Z,1.30
2018-06-05T23:41:06.921Z,1.60
2018-06-05T23:43:35.234Z,1.30
2018-06-05T23:46:03.317Z,1.37
2018-06-05T23:48:31.421Z,1.50
2018-06-05T23:51:00.138Z,1.25
2018-06-05T23:53:28.752Z,1.20
2018-06-05T23:55:56.814Z,1.30
2018-06-05T23:58:25.410Z,1.45
